sensor_id;sensor_type;location;lat;lon;timestamp;pressure;altitude;pressure_sealevel;temperature;humidity
42511;BME280;28141;51.120;17.114;2022-08-19T00:01:18;100927.25;;;32.98;38.76
42511;BME280;28141;51.120;17.114;2022-08-19T00:04:25;100925.02;;;32.95;38.34
42511;BME280;28141;51.120;17.114;2022-08-19T00:07:58;100929.52;;;32.91;38.57
42511;BME280;28141;51.120;17.114;2022-08-19T00:11:01;100923.35;;;32.89;38.71
42511;BME280;28141;51.120;17.114;2022-08-19T00:14:06;100916.09;;;32.88;38.39
42511;BME280;28141;51.120;17.114;2022-08-19T00:17:12;100905.68;;;32.88;38.98
42511;BME280;28141;51.120;17.114;2022-08-19T00:20:19;100906.29;;;32.85;38.24
42511;BME280;28141;51.120;17.114;2022-08-19T00:23:23;100895.63;;;32.82;38.09
42511;BME280;28141;51.120;17.114;2022-08-19T00:26:28;100883.02;;;32.80;38.87
42511;BME280;28141;51.120;17.114;2022-08-19T00:29:31;100884.14;;;32.79;38.76
42511;BME280;28141;51.120;17.114;2022-08-19T00:32:34;100874.37;;;32.76;38.96
42511;BME280;28141;51.120;17.114;2022-08-19T00:35:38;100865.40;;;32.74;38.88
42511;BME280;28141;51.120;17.114;2022-08-19T00:39:11;100873.55;;;32.71;38.79
42511;BME280;28141;51.120;17.114;2022-08-19T00:42:15;100872.98;;;32.69;38.36
42511;BME280;28141;51.120;17.114;2022-08-19T00:45:21;100879.18;;;32.66;39.69
42511;BME280;28141;51.120;17.114;2022-08-19T00:48:25;100870.77;;;32.66;38.56
42511;BME280;28141;51.120;17.114;2022-08-19T00:51:30;100875.82;;;32.63;38.68
42511;BME280;28141;51.120;17.114;2022-08-19T00:54:36;100878.08;;;32.61;39.23
42511;BME280;28141;51.120;17.114;2022-08-19T00:57:45;100889.30;;;32.61;39.02
42511;BME280;28141;51.120;17.114;2022-08-19T01:00:49;100889.02;;;32.58;38.53
42511;BME280;28141;51.120;17.114;2022-08-19T01:03:52;100910.09;;;32.55;39.31
42511;BME280;28141;51.120;17.114;2022-08-19T01:07:24;100878.14;;;32.51;39.08
42511;BME280;28141;51.120;17.114;2022-08-19T01:10:31;100882.35;;;32.49;39.73
42511;BME280;28141;51.120;17.114;2022-08-19T01:13:35;100865.81;;;32.47;38.77
42511;BME280;28141;51.120;17.114;2022-08-19T01:16:40;100864.13;;;32.46;39.76
42511;BME280;28141;51.120;17.114;2022-08-19T01:19:46;100853.75;;;32.47;38.80
42511;BME280;28141;51.120;17.114;2022-08-19T01:22:53;100841.70;;;32.46;39.70
42511;BME280;28141;51.120;17.114;2022-08-19T01:25:57;100832.45;;;32.46;39.15
42511;BME280;28141;51.120;17.114;2022-08-19T01:29:00;100821.55;;;32.44;38.88
42511;BME280;28141;51.120;17.114;2022-08-19T01:32:04;100812.29;;;32.44;39.49
42511;BME280;28141;51.120;17.114;2022-08-19T01:35:37;100807.26;;;32.41;39.16
42511;BME280;28141;51.120;17.114;2022-08-19T01:38:43;100817.63;;;32.40;38.84
42511;BME280;28141;51.120;17.114;2022-08-19T01:41:48;100815.66;;;32.41;38.84
42511;BME280;28141;51.120;17.114;2022-08-19T01:44:52;100816.51;;;32.41;38.58
42511;BME280;28141;51.120;17.114;2022-08-19T01:47:55;100813.99;;;32.40;39.14
42511;BME280;28141;51.120;17.114;2022-08-19T01:50:59;100806.70;;;32.39;38.87
42511;BME280;28141;51.120;17.114;2022-08-19T01:54:03;100808.66;;;32.38;38.73
42511;BME280;28141;51.120;17.114;2022-08-19T01:57:11;100809.79;;;32.37;38.94
42511;BME280;28141;51.120;17.114;2022-08-19T02:00:19;100821.85;;;32.38;39.27
42511;BME280;28141;51.120;17.114;2022-08-19T02:03:51;100817.65;;;32.35;39.21
42511;BME280;28141;51.120;17.114;2022-08-19T02:06:57;100818.25;;;32.32;39.61
42511;BME280;28141;51.120;17.114;2022-08-19T02:10:06;100810.96;;;32.31;39.01
42511;BME280;28141;51.120;17.114;2022-08-19T02:13:11;100819.38;;;32.31;39.77
42511;BME280;28141;51.120;17.114;2022-08-19T02:16:17;100815.18;;;32.28;39.80
42511;BME280;28141;51.120;17.114;2022-08-19T02:19:21;100813.21;;;32.29;39.91
42511;BME280;28141;51.120;17.114;2022-08-19T02:22:25;100800.60;;;32.26;39.59
42511;BME280;28141;51.120;17.114;2022-08-19T02:25:28;100791.96;;;32.23;39.83
42511;BME280;28141;51.120;17.114;2022-08-19T02:28:32;100783.55;;;32.23;39.15
42511;BME280;28141;51.120;17.114;2022-08-19T02:32:07;100793.66;;;32.19;39.39
42511;BME280;28141;51.120;17.114;2022-08-19T02:35:12;100798.67;;;32.17;39.81
42511;BME280;28141;51.120;17.114;2022-08-19T02:38:16;100786.63;;;32.16;38.82
42511;BME280;28141;51.120;17.114;2022-08-19T02:41:30;100786.95;;;32.10;39.27
42511;BME280;28141;51.120;17.114;2022-08-19T02:44:34;100772.95;;;32.10;38.78
42511;BME280;28141;51.120;17.114;2022-08-19T02:47:37;100776.03;;;32.08;39.38
42511;BME280;28141;51.120;17.114;2022-08-19T02:50:41;100779.67;;;32.09;39.36
42511;BME280;28141;51.120;17.114;2022-08-19T02:53:44;100787.52;;;32.07;39.58
42511;BME280;28141;51.120;17.114;2022-08-19T02:56:47;100785.84;;;32.06;39.62
42511;BME280;28141;51.120;17.114;2022-08-19T03:00:19;100792.85;;;32.03;39.70
42511;BME280;28141;51.120;17.114;2022-08-19T03:03:23;100779.97;;;32.02;39.75
42511;BME280;28141;51.120;17.114;2022-08-19T03:06:28;100779.97;;;32.02;40.00
42511;BME280;28141;51.120;17.114;2022-08-19T03:09:31;100779.68;;;32.04;40.25
42511;BME280;28141;51.120;17.114;2022-08-19T03:12:38;100779.97;;;32.02;39.99
42511;BME280;28141;51.120;17.114;2022-08-19T03:15:43;100787.85;;;32.00;40.02
42511;BME280;28141;51.120;17.114;2022-08-19T03:18:48;100802.70;;;32.01;40.79
42511;BME280;28141;51.120;17.114;2022-08-19T03:21:52;100818.35;;;32.02;40.36
42511;BME280;28141;51.120;17.114;2022-08-19T03:24:56;100825.40;;;31.99;41.24
42511;BME280;28141;51.120;17.114;2022-08-19T03:27:59;100823.95;;;32.02;41.44
42511;BME280;28141;51.120;17.114;2022-08-19T03:31:29;100828.48;;;31.98;41.33
42511;BME280;28141;51.120;17.114;2022-08-19T03:34:36;100822.88;;;31.98;41.77
42511;BME280;28141;51.120;17.114;2022-08-19T03:37:40;100815.30;;;31.98;41.58
42511;BME280;28141;51.120;17.114;2022-08-19T03:40:43;100818.95;;;31.99;41.50
42511;BME280;28141;51.120;17.114;2022-08-19T03:43:47;100824.84;;;31.97;42.03
42511;BME280;28141;51.120;17.114;2022-08-19T03:46:55;100823.72;;;31.98;41.76
42511;BME280;28141;51.120;17.114;2022-08-19T03:49:59;100813.07;;;31.95;42.08
42511;BME280;28141;51.120;17.114;2022-08-19T03:53:02;100816.45;;;31.92;42.10
42511;BME280;28141;51.120;17.114;2022-08-19T03:56:08;100811.96;;;31.91;42.64
42511;BME280;28141;51.120;17.114;2022-08-19T03:59:39;100830.77;;;31.90;42.40
42511;BME280;28141;51.120;17.114;2022-08-19T04:02:42;100826.28;;;31.89;42.40
42511;BME280;28141;51.120;17.114;2022-08-19T04:05:46;100823.77;;;31.88;42.85
42511;BME280;28141;51.120;17.114;2022-08-19T04:08:51;100842.81;;;31.86;43.19
42511;BME280;28141;51.120;17.114;2022-08-19T04:11:57;100836.38;;;31.85;42.86
42511;BME280;28141;51.120;17.114;2022-08-19T04:15:01;100837.21;;;31.86;42.46
42511;BME280;28141;51.120;17.114;2022-08-19T04:18:05;100829.38;;;31.83;42.35
42511;BME280;28141;51.120;17.114;2022-08-19T04:21:16;100844.22;;;31.83;42.76
42511;BME280;28141;51.120;17.114;2022-08-19T04:24:21;100844.22;;;31.83;43.08
42511;BME280;28141;51.120;17.114;2022-08-19T04:27:51;100860.19;;;31.83;43.06
42511;BME280;28141;51.120;17.114;2022-08-19T04:30:55;100852.90;;;31.82;43.10
42511;BME280;28141;51.120;17.114;2022-08-19T04:34:00;100854.03;;;31.81;43.31
42511;BME280;28141;51.120;17.114;2022-08-19T04:37:05;100855.17;;;31.80;43.67
42511;BME280;28141;51.120;17.114;2022-08-19T04:40:15;100852.34;;;31.85;42.57
42511;BME280;28141;51.120;17.114;2022-08-19T04:43:31;100838.09;;;31.76;43.30
42511;BME280;28141;51.120;17.114;2022-08-19T04:46:35;100836.93;;;31.82;43.02
42511;BME280;28141;51.120;17.114;2022-08-19T04:50:05;100836.38;;;31.80;43.23
42511;BME280;28141;51.120;17.114;2022-08-19T04:53:10;100836.13;;;31.77;43.26
42511;BME280;28141;51.120;17.114;2022-08-19T04:56:16;100846.77;;;31.80;43.58
42511;BME280;28141;51.120;17.114;2022-08-19T04:59:22;100832.18;;;31.83;43.27
42511;BME280;28141;51.120;17.114;2022-08-19T05:02:25;100829.38;;;31.83;42.95
42511;BME280;28141;51.120;17.114;2022-08-19T05:05:29;100819.84;;;31.84;43.60
42511;BME280;28141;51.120;17.114;2022-08-19T05:08:36;100821.25;;;31.81;43.33
42511;BME280;28141;51.120;17.114;2022-08-19T05:11:39;100832.45;;;31.86;43.73
42511;BME280;28141;51.120;17.114;2022-08-19T05:14:43;100841.70;;;31.82;43.06
42511;BME280;28141;51.120;17.114;2022-08-19T05:18:16;100832.77;;;31.80;43.57
42511;BME280;28141;51.120;17.114;2022-08-19T05:21:32;100833.61;;;31.70;43.83
42511;BME280;28141;51.120;17.114;2022-08-19T05:24:48;100838.96;;;31.67;44.02
42511;BME280;28141;51.120;17.114;2022-08-19T05:27:52;100849.30;;;31.71;43.76
42511;BME280;28141;51.120;17.114;2022-08-19T05:30:55;100838.09;;;31.71;44.26
42511;BME280;28141;51.120;17.114;2022-08-19T05:33:59;100836.70;;;31.74;44.29
42511;BME280;28141;51.120;17.114;2022-08-19T05:37:03;100840.34;;;31.74;43.80
42511;BME280;28141;51.120;17.114;2022-08-19T05:40:35;100836.73;;;31.69;44.16
42511;BME280;28141;51.120;17.114;2022-08-19T05:43:41;100843.96;;;31.80;43.88
42511;BME280;28141;51.120;17.114;2022-08-19T05:46:45;100850.94;;;31.82;44.11
42511;BME280;28141;51.120;17.114;2022-08-19T05:49:51;100842.86;;;31.76;44.24
42511;BME280;28141;51.120;17.114;2022-08-19T05:52:55;100838.65;;;31.73;44.83
42511;BME280;28141;51.120;17.114;2022-08-19T05:56:04;100844.81;;;31.70;44.73
42511;BME280;28141;51.120;17.114;2022-08-19T05:59:09;100832.21;;;31.73;44.78
42511;BME280;28141;51.120;17.114;2022-08-19T06:02:14;100831.66;;;31.76;44.52
42511;BME280;28141;51.120;17.114;2022-08-19T06:05:18;100843.41;;;31.73;44.28
42511;BME280;28141;51.120;17.114;2022-08-19T06:08:49;100859.94;;;31.79;44.62
42511;BME280;28141;51.120;17.114;2022-08-19T06:11:56;100864.38;;;31.80;44.87
42511;BME280;28141;51.120;17.114;2022-08-19T06:15:12;100865.51;;;31.84;44.54
42511;BME280;28141;51.120;17.114;2022-08-19T06:18:16;100879.52;;;31.89;44.49
42511;BME280;28141;51.120;17.114;2022-08-19T06:21:22;100884.00;;;31.90;45.30
42511;BME280;28141;51.120;17.114;2022-08-19T06:24:28;100903.01;;;31.99;44.66
42511;BME280;28141;51.120;17.114;2022-08-19T06:27:32;100904.70;;;32.00;44.75
42511;BME280;28141;51.120;17.114;2022-08-19T06:31:06;100897.13;;;31.95;45.11
42511;BME280;28141;51.120;17.114;2022-08-19T06:34:10;100894.02;;;32.07;44.91
42511;BME280;28141;51.120;17.114;2022-08-19T06:37:14;100899.05;;;32.10;45.45
42511;BME280;28141;51.120;17.114;2022-08-19T06:40:18;100914.47;;;32.12;45.02
42511;BME280;28141;51.120;17.114;2022-08-19T06:43:21;100927.89;;;32.15;45.14
42511;BME280;28141;51.120;17.114;2022-08-19T06:46:25;100936.04;;;32.22;45.25
42511;BME280;28141;51.120;17.114;2022-08-19T06:49:29;100952.86;;;32.22;45.22
42511;BME280;28141;51.120;17.114;2022-08-19T06:52:36;100947.81;;;32.19;44.96
42511;BME280;28141;51.120;17.114;2022-08-19T06:55:39;100956.46;;;32.27;44.70
42511;BME280;28141;51.120;17.114;2022-08-19T06:59:19;100953.38;;;32.29;44.82
42511;BME280;28141;51.120;17.114;2022-08-19T07:02:23;100953.11;;;32.25;44.53
42511;BME280;28141;51.120;17.114;2022-08-19T07:05:29;100954.54;;;32.18;45.18
42511;BME280;28141;51.120;17.114;2022-08-19T07:08:33;100958.16;;;32.23;44.76
42511;BME280;28141;51.120;17.114;2022-08-19T07:11:47;100956.78;;;32.21;45.24
42511;BME280;28141;51.120;17.114;2022-08-19T07:14:51;100953.39;;;32.24;44.63
42511;BME280;28141;51.120;17.114;2022-08-19T07:17:56;100955.06;;;32.30;45.45
42511;BME280;28141;51.120;17.114;2022-08-19T07:21:08;100962.59;;;32.35;44.73
42511;BME280;28141;51.120;17.114;2022-08-19T07:24:40;100971.36;;;32.23;44.88
42511;BME280;28141;51.120;17.114;2022-08-19T07:27:44;100966.56;;;32.34;44.79
42511;BME280;28141;51.120;17.114;2022-08-19T07:30:48;100975.53;;;32.31;45.04
42511;BME280;28141;51.120;17.114;2022-08-19T07:33:55;100976.62;;;32.40;44.55
42511;BME280;28141;51.120;17.114;2022-08-19T07:37:00;100976.05;;;32.38;44.76
42511;BME280;28141;51.120;17.114;2022-08-19T07:40:06;100980.23;;;32.45;44.74
42511;BME280;28141;51.120;17.114;2022-08-19T07:43:09;100980.17;;;32.60;44.36
42511;BME280;28141;51.120;17.114;2022-08-19T07:46:13;100977.89;;;32.68;44.10
42511;BME280;28141;51.120;17.114;2022-08-19T07:49:18;100985.47;;;32.77;44.13
42511;BME280;28141;51.120;17.114;2022-08-19T07:52:51;100973.15;;;32.63;44.01
42511;BME280;28141;51.120;17.114;2022-08-19T07:55:54;100977.86;;;32.78;43.40
42511;BME280;28141;51.120;17.114;2022-08-19T07:59:04;100986.82;;;32.85;43.95
42511;BME280;28141;51.120;17.114;2022-08-19T08:02:08;100983.46;;;32.83;43.73
42511;BME280;28141;51.120;17.114;2022-08-19T08:05:12;100983.50;;;32.68;43.91
42511;BME280;28141;51.120;17.114;2022-08-19T08:08:28;100996.44;;;32.58;44.02
42511;BME280;28141;51.120;17.114;2022-08-19T08:12:13;101011.01;;;32.66;44.04
42511;BME280;28141;51.120;17.114;2022-08-19T08:15:17;101003.45;;;32.71;44.03
42511;BME280;28141;51.120;17.114;2022-08-19T08:18:23;101008.43;;;32.79;43.95
42511;BME280;28141;51.120;17.114;2022-08-19T08:21:27;101016.27;;;32.87;43.70
42511;BME280;28141;51.120;17.114;2022-08-19T08:24:31;101015.38;;;32.97;43.81
42511;BME280;28141;51.120;17.114;2022-08-19T08:27:37;101014.77;;;33.05;43.51
42511;BME280;28141;51.120;17.114;2022-08-19T08:32:58;101004.39;;;33.00;43.91
42511;BME280;28141;51.120;17.114;2022-08-19T08:36:05;100999.12;;;32.94;43.36
42511;BME280;28141;51.120;17.114;2022-08-19T08:39:09;100995.13;;;33.00;43.66
42511;BME280;28141;51.120;17.114;2022-08-19T08:45:30;100986.59;;;33.20;43.92
42511;BME280;28141;51.120;17.114;2022-08-19T08:52:25;101002.30;;;33.26;43.12
42511;BME280;28141;51.120;17.114;2022-08-19T08:55:30;101001.77;;;33.19;43.11
42511;BME280;28141;51.120;17.114;2022-08-19T08:58:45;100989.41;;;33.20;43.27
42511;BME280;28141;51.120;17.114;2022-08-19T09:01:50;100984.54;;;33.36;43.25
42511;BME280;28141;51.120;17.114;2022-08-19T09:04:54;100990.65;;;33.43;42.74
42511;BME280;28141;51.120;17.114;2022-08-19T09:08:03;100975.39;;;33.54;42.96
42511;BME280;28141;51.120;17.114;2022-08-19T09:11:44;100975.94;;;33.56;42.62
42511;BME280;28141;51.120;17.114;2022-08-19T09:14:54;100960.31;;;33.45;42.20
42511;BME280;28141;51.120;17.114;2022-08-19T09:18:01;100969.55;;;33.51;42.60
42511;BME280;28141;51.120;17.114;2022-08-19T09:21:05;100980.48;;;33.52;42.75
42511;BME280;28141;51.120;17.114;2022-08-19T09:24:11;100996.63;;;32.87;42.13
42511;BME280;28141;51.120;17.114;2022-08-19T09:27:43;101006.05;;;32.37;40.06
42511;BME280;28141;51.120;17.114;2022-08-19T09:30:47;101003.28;;;32.17;38.74
42511;BME280;28141;51.120;17.114;2022-08-19T09:33:52;101005.01;;;31.98;37.64
42511;BME280;28141;51.120;17.114;2022-08-19T09:36:59;100999.98;;;31.74;36.94
42511;BME280;28141;51.120;17.114;2022-08-19T09:40:06;100998.84;;;31.55;36.48
42511;BME280;28141;51.120;17.114;2022-08-19T09:43:10;101002.17;;;31.27;36.08
42511;BME280;28141;51.120;17.114;2022-08-19T09:46:14;101007.77;;;30.49;36.93
42511;BME280;28141;51.120;17.114;2022-08-19T09:49:22;100994.13;;;30.10;39.24
42511;BME280;28141;51.120;17.114;2022-08-19T09:52:25;100988.64;;;30.31;42.95
42511;BME280;28141;51.120;17.114;2022-08-19T09:55:57;100998.50;;;30.43;45.57
42511;BME280;28141;51.120;17.114;2022-08-19T09:59:02;101000.30;;;30.65;46.93
42511;BME280;28141;51.120;17.114;2022-08-19T10:02:06;100983.83;;;30.68;46.86
42511;BME280;28141;51.120;17.114;2022-08-19T10:05:10;100981.38;;;30.97;47.65
42511;BME280;28141;51.120;17.114;2022-08-19T10:08:29;100983.69;;;31.15;47.74
42511;BME280;28141;51.120;17.114;2022-08-19T10:11:34;100984.84;;;31.35;47.77
42511;BME280;28141;51.120;17.114;2022-08-19T10:14:40;100983.45;;;31.58;46.87
42511;BME280;28141;51.120;17.114;2022-08-19T10:18:11;100998.84;;;31.45;44.92
42511;BME280;28141;51.120;17.114;2022-08-19T10:21:22;100996.04;;;31.35;42.17
42511;BME280;28141;51.120;17.114;2022-08-19T10:24:26;101007.49;;;31.13;40.73
42511;BME280;28141;51.120;17.114;2022-08-19T10:27:30;100998.14;;;30.87;39.92
42511;BME280;28141;51.120;17.114;2022-08-19T10:30:38;101004.67;;;30.50;39.73
42511;BME280;28141;51.120;17.114;2022-08-19T10:33:42;100991.11;;;30.17;39.83
42511;BME280;28141;51.120;17.114;2022-08-19T10:36:46;100985.59;;;30.32;43.25
42511;BME280;28141;51.120;17.114;2022-08-19T10:39:51;100977.28;;;30.47;45.73
42511;BME280;28141;51.120;17.114;2022-08-19T10:43:24;100968.45;;;30.71;46.66
42511;BME280;28141;51.120;17.114;2022-08-19T10:46:28;100960.66;;;30.88;47.18
42511;BME280;28141;51.120;17.114;2022-08-19T10:49:35;100963.20;;;31.05;46.84
42511;BME280;28141;51.120;17.114;2022-08-19T10:52:50;100964.66;;;31.28;47.10
42511;BME280;28141;51.120;17.114;2022-08-19T10:55:53;100967.78;;;31.36;46.60
42511;BME280;28141;51.120;17.114;2022-08-19T10:59:09;100975.60;;;31.54;45.41
42511;BME280;28141;51.120;17.114;2022-08-19T11:02:41;100984.00;;;31.54;42.33
42511;BME280;28141;51.120;17.114;2022-08-19T11:05:45;100979.80;;;31.42;40.65
42511;BME280;28141;51.120;17.114;2022-08-19T11:08:48;100984.57;;;31.46;39.34
42511;BME280;28141;51.120;17.114;2022-08-19T11:11:52;100985.41;;;31.47;38.62
42511;BME280;28141;51.120;17.114;2022-08-19T11:14:56;100976.97;;;31.11;39.95
42511;BME280;28141;51.120;17.114;2022-08-19T11:18:00;100971.88;;;30.93;42.65
42511;BME280;28141;51.120;17.114;2022-08-19T11:21:14;100969.09;;;30.93;44.50
42511;BME280;28141;51.120;17.114;2022-08-19T11:24:22;100968.51;;;30.96;45.11
42511;BME280;28141;51.120;17.114;2022-08-19T11:27:26;100968.02;;;31.19;45.76
42511;BME280;28141;51.120;17.114;2022-08-19T11:30:58;100975.60;;;31.34;45.85
42511;BME280;28141;51.120;17.114;2022-08-19T11:34:04;100972.52;;;31.41;45.63
42511;BME280;28141;51.120;17.114;2022-08-19T11:37:08;100961.90;;;31.63;45.05
42511;BME280;28141;51.120;17.114;2022-08-19T11:40:12;100970.83;;;31.60;44.91
42511;BME280;28141;51.120;17.114;2022-08-19T11:43:15;100971.41;;;31.72;42.30
42511;BME280;28141;51.120;17.114;2022-08-19T11:46:22;100980.66;;;31.58;41.14
42511;BME280;28141;51.120;17.114;2022-08-19T11:49:27;100991.56;;;31.34;40.74
42511;BME280;28141;51.120;17.114;2022-08-19T11:52:33;100994.91;;;31.20;39.50
42511;BME280;28141;51.120;17.114;2022-08-19T11:55:38;100989.02;;;31.27;39.36
42511;BME280;28141;51.120;17.114;2022-08-19T11:59:09;100979.76;;;31.16;42.47
42511;BME280;28141;51.120;17.114;2022-08-19T12:02:13;100966.89;;;31.15;44.50
42511;BME280;28141;51.120;17.114;2022-08-19T12:05:18;100970.02;;;31.34;45.42
42511;BME280;28141;51.120;17.114;2022-08-19T12:08:22;100961.03;;;31.52;45.38
42511;BME280;28141;51.120;17.114;2022-08-19T12:11:26;100962.73;;;31.74;45.24
42511;BME280;28141;51.120;17.114;2022-08-19T12:14:30;100961.29;;;31.91;45.37
42511;BME280;28141;51.120;17.114;2022-08-19T12:17:35;100965.75;;;32.08;44.06
42511;BME280;28141;51.120;17.114;2022-08-19T12:20:40;100962.07;;;32.27;43.67
42511;BME280;28141;51.120;17.114;2022-08-19T12:23:44;100960.36;;;32.37;42.90
42511;BME280;28141;51.120;17.114;2022-08-19T12:26:51;100962.23;;;32.56;42.99
42511;BME280;28141;51.120;17.114;2022-08-19T12:30:21;100974.48;;;32.81;41.96
42511;BME280;28141;51.120;17.114;2022-08-19T12:33:24;100970.02;;;32.70;41.00
42511;BME280;28141;51.120;17.114;2022-08-19T12:36:31;100970.84;;;32.80;38.85
42511;BME280;28141;51.120;17.114;2022-08-19T12:39:40;100969.98;;;32.85;38.49
42511;BME280;28141;51.120;17.114;2022-08-19T12:42:44;100974.43;;;32.91;36.46
42511;BME280;28141;51.120;17.114;2022-08-19T12:45:51;100971.16;;;32.69;36.48
42511;BME280;28141;51.120;17.114;2022-08-19T12:48:56;100962.36;;;32.31;36.79
42511;BME280;28141;51.120;17.114;2022-08-19T12:52:04;100965.95;;;32.42;40.28
42511;BME280;28141;51.120;17.114;2022-08-19T12:55:37;100966.84;;;32.32;41.83
42511;BME280;28141;51.120;17.114;2022-08-19T12:58:41;100967.31;;;32.54;42.57
42511;BME280;28141;51.120;17.114;2022-08-19T13:01:45;100965.86;;;32.62;43.19
42511;BME280;28141;51.120;17.114;2022-08-19T13:04:48;100961.43;;;33.05;42.24
42511;BME280;28141;51.120;17.114;2022-08-19T13:07:54;100966.59;;;33.32;41.06
42511;BME280;28141;51.120;17.114;2022-08-19T13:14:14;100966.67;;;33.56;39.75
42511;BME280;28141;51.120;17.114;2022-08-19T13:17:18;100961.48;;;33.73;38.02
42511;BME280;28141;51.120;17.114;2022-08-19T13:20:22;100969.73;;;33.93;36.40
42511;BME280;28141;51.120;17.114;2022-08-19T13:23:52;100969.77;;;33.88;35.38
42511;BME280;28141;51.120;17.114;2022-08-19T13:26:55;100971.03;;;33.72;35.32
42511;BME280;28141;51.120;17.114;2022-08-19T13:29:59;100969.35;;;33.71;34.12
42511;BME280;28141;51.120;17.114;2022-08-19T13:33:15;100963.55;;;33.28;37.04
42511;BME280;28141;51.120;17.114;2022-08-19T13:36:19;100956.53;;;33.21;39.45
42511;BME280;28141;51.120;17.114;2022-08-19T13:39:23;100960.13;;;33.31;40.24
42511;BME280;28141;51.120;17.114;2022-08-19T13:42:27;100954.28;;;33.62;40.65
42511;BME280;28141;51.120;17.114;2022-08-19T13:45:57;100963.20;;;33.98;39.81
42511;BME280;28141;51.120;17.114;2022-08-19T13:49:01;100964.35;;;34.21;39.42
42511;BME280;28141;51.120;17.114;2022-08-19T13:52:05;100968.57;;;34.47;38.18
42511;BME280;28141;51.120;17.114;2022-08-19T13:55:11;100968.03;;;34.45;37.99
42511;BME280;28141;51.120;17.114;2022-08-19T13:58:15;100975.04;;;34.48;37.57
42511;BME280;28141;51.120;17.114;2022-08-19T14:01:21;100967.57;;;34.38;36.73
42511;BME280;28141;51.120;17.114;2022-08-19T14:04:24;100968.75;;;34.32;37.74
42511;BME280;28141;51.120;17.114;2022-08-19T14:07:28;100962.07;;;34.28;37.40
42511;BME280;28141;51.120;17.114;2022-08-19T14:10:32;100967.70;;;34.28;36.93
42511;BME280;28141;51.120;17.114;2022-08-19T14:13:36;100966.87;;;34.22;37.10
42511;BME280;28141;51.120;17.114;2022-08-19T14:16:40;100964.89;;;34.23;37.25
42511;BME280;28141;51.120;17.114;2022-08-19T14:19:43;100962.09;;;34.23;36.48
42511;BME280;28141;51.120;17.114;2022-08-19T14:23:13;100954.31;;;34.15;37.36
42511;BME280;28141;51.120;17.114;2022-08-19T14:26:18;100967.28;;;34.11;37.52
42511;BME280;28141;51.120;17.114;2022-08-19T14:29:22;100955.20;;;34.10;37.77
42511;BME280;28141;51.120;17.114;2022-08-19T14:32:25;100948.73;;;34.10;37.89
42511;BME280;28141;51.120;17.114;2022-08-19T14:35:31;100950.77;;;34.04;37.44
42511;BME280;28141;51.120;17.114;2022-08-19T14:38:38;100950.19;;;34.07;37.51
42511;BME280;28141;51.120;17.114;2022-08-19T14:41:42;100942.94;;;34.01;37.57
42511;BME280;28141;51.120;17.114;2022-08-19T14:44:47;100953.59;;;34.04;37.65
42511;BME280;28141;51.120;17.114;2022-08-19T14:47:51;100943.48;;;34.03;37.01
42511;BME280;28141;51.120;17.114;2022-08-19T14:50:56;100942.68;;;33.97;37.72
42511;BME280;28141;51.120;17.114;2022-08-19T14:53:59;100940.41;;;33.99;37.51
42511;BME280;28141;51.120;17.114;2022-08-19T14:57:03;100947.78;;;33.95;37.62
42511;BME280;28141;51.120;17.114;2022-08-19T15:00:08;100942.68;;;33.97;37.86
42511;BME280;28141;51.120;17.114;2022-08-19T15:03:45;100954.54;;;33.94;37.76
42511;BME280;28141;51.120;17.114;2022-08-19T15:06:49;100943.30;;;33.94;37.98
42511;BME280;28141;51.120;17.114;2022-08-19T15:09:53;100943.30;;;33.94;38.15
42511;BME280;28141;51.120;17.114;2022-08-19T15:12:57;100944.18;;;33.90;37.95
42511;BME280;28141;51.120;17.114;2022-08-19T15:16:02;100937.97;;;33.93;38.04
42511;BME280;28141;51.120;17.114;2022-08-19T15:19:07;100954.84;;;33.93;37.82
42511;BME280;28141;51.120;17.114;2022-08-19T15:22:11;100950.89;;;33.94;38.55
42511;BME280;28141;51.120;17.114;2022-08-19T15:25:16;100951.73;;;33.94;38.52
42511;BME280;28141;51.120;17.114;2022-08-19T15:28:25;100948.92;;;33.94;38.57
42511;BME280;28141;51.120;17.114;2022-08-19T15:31:30;100958.66;;;34.02;38.59
42511;BME280;28141;51.120;17.114;2022-08-19T15:34:38;100951.11;;;33.97;38.59
42511;BME280;28141;51.120;17.114;2022-08-19T15:37:42;100962.17;;;33.89;38.46
42511;BME280;28141;51.120;17.114;2022-08-19T15:40:50;100969.36;;;34.00;39.65
42511;BME280;28141;51.120;17.114;2022-08-19T15:44:00;100971.11;;;33.96;39.45
42511;BME280;28141;51.120;17.114;2022-08-19T15:47:31;100957.69;;;33.88;39.39
42511;BME280;28141;51.120;17.114;2022-08-19T15:50:35;100961.41;;;33.83;38.83
42511;BME280;28141;51.120;17.114;2022-08-19T15:53:40;100969.28;;;33.81;39.73
42511;BME280;28141;51.120;17.114;2022-08-19T15:56:44;100974.32;;;33.84;39.57
42511;BME280;28141;51.120;17.114;2022-08-19T15:59:59;100976.48;;;33.92;39.88
42511;BME280;28141;51.120;17.114;2022-08-19T16:03:14;100974.22;;;33.94;40.38
42511;BME280;28141;51.120;17.114;2022-08-19T16:06:57;100982.66;;;33.94;40.15
42511;BME280;28141;51.120;17.114;2022-08-19T16:10:01;100989.04;;;34.00;39.89
42511;BME280;28141;51.120;17.114;2022-08-19T16:13:05;100980.87;;;34.03;40.11
42511;BME280;28141;51.120;17.114;2022-08-19T16:16:08;100961.23;;;33.98;40.11
42511;BME280;28141;51.120;17.114;2022-08-19T16:19:13;100953.41;;;33.95;40.03
42511;BME280;28141;51.120;17.114;2022-08-19T16:22:17;100960.09;;;33.99;40.69
42511;BME280;28141;51.120;17.114;2022-08-19T16:25:23;100976.38;;;34.02;40.49